sensor_id;sensor_type;location;lat;lon;timestamp;P1;durP1;ratioP1;P2;durP2;ratioP2
39264;SDS011;42646;51.910;7.724;2023-09-30T00:02:23;8.07;;;2.60;;
39264;SDS011;42646;51.910;7.724;2023-09-30T00:04:54;7.68;;;2.58;;
39264;SDS011;42646;51.910;7.724;2023-09-30T00:07:22;7.07;;;2.60;;
39264;SDS011;42646;51.910;7.724;2023-09-30T00:10:14;6.03;;;2.60;;
39264;SDS011;42646;51.910;7.724;2023-09-30T00:12:43;8.25;;;2.70;;
39264;SDS011;42646;51.910;7.724;2023-09-30T00:15:12;6.25;;;2.55;;
39264;SDS011;42646;51.910;7.724;2023-09-30T00:17:42;9.13;;;2.85;;
39264;SDS011;42646;51.910;7.724;2023-09-30T00:20:11;7.78;;;2.70;;
39264;SDS011;42646;51.910;7.724;2023-09-30T00:22:41;6.18;;;2.80;;
39264;SDS011;42646;51.910;7.724;2023-09-30T00:25:09;8.75;;;2.67;;
39264;SDS011;42646;51.910;7.724;2023-09-30T00:27:37;7.65;;;3.15;;
39264;SDS011;42646;51.910;7.724;2023-09-30T00:30:05;10.48;;;2.97;;
39264;SDS011;42646;51.910;7.724;2023-09-30T00:32:34;7.70;;;2.50;;
39264;SDS011;42646;51.910;7.724;2023-09-30T00:35:03;8.77;;;2.60;;
39264;SDS011;42646;51.910;7.724;2023-09-30T00:37:31;8.10;;;2.60;;
39264;SDS011;42646;51.910;7.724;2023-09-30T00:39:59;8.27;;;2.83;;
39264;SDS011;42646;51.910;7.724;2023-09-30T00:42:27;8.88;;;2.97;;
39264;SDS011;42646;51.910;7.724;2023-09-30T00:44:58;7.38;;;3.05;;
39264;SDS011;42646;51.910;7.724;2023-09-30T00:47:27;8.13;;;2.78;;
39264;SDS011;42646;51.910;7.724;2023-09-30T00:49:55;6.82;;;2.67;;
39264;SDS011;42646;51.910;7.724;2023-09-30T00:52:24;6.47;;;2.90;;
39264;SDS011;42646;51.910;7.724;2023-09-30T00:54:52;8.55;;;3.13;;
39264;SDS011;42646;51.910;7.724;2023-09-30T00:57:21;8.85;;;2.70;;
39264;SDS011;42646;51.910;7.724;2023-09-30T00:59:49;10.80;;;3.03;;
39264;SDS011;42646;51.910;7.724;2023-09-30T01:02:18;9.40;;;3.22;;
39264;SDS011;42646;51.910;7.724;2023-09-30T01:04:46;8.23;;;2.88;;
39264;SDS011;42646;51.910;7.724;2023-09-30T01:07:14;6.00;;;2.80;;
39264;SDS011;42646;51.910;7.724;2023-09-30T01:09:44;8.25;;;3.30;;
39264;SDS011;42646;51.910;7.724;2023-09-30T01:12:12;7.35;;;2.78;;
39264;SDS011;42646;51.910;7.724;2023-09-30T01:14:40;9.15;;;3.33;;
39264;SDS011;42646;51.910;7.724;2023-09-30T01:17:09;7.53;;;3.00;;
39264;SDS011;42646;51.910;7.724;2023-09-30T01:19:40;10.40;;;3.22;;
39264;SDS011;42646;51.910;7.724;2023-09-30T01:22:10;6.68;;;2.80;;
39264;SDS011;42646;51.910;7.724;2023-09-30T01:24:38;8.70;;;2.90;;
39264;SDS011;42646;51.910;7.724;2023-09-30T01:27:07;8.63;;;3.38;;
39264;SDS011;42646;51.910;7.724;2023-09-30T01:29:37;7.50;;;3.17;;
39264;SDS011;42646;51.910;7.724;2023-09-30T01:32:05;9.48;;;3.40;;
39264;SDS011;42646;51.910;7.724;2023-09-30T01:34:35;8.73;;;3.25;;
39264;SDS011;42646;51.910;7.724;2023-09-30T01:37:03;8.82;;;3.20;;
39264;SDS011;42646;51.910;7.724;2023-09-30T01:39:33;8.02;;;3.13;;
39264;SDS011;42646;51.910;7.724;2023-09-30T01:42:01;8.25;;;2.90;;
39264;SDS011;42646;51.910;7.724;2023-09-30T01:44:32;8.85;;;3.30;;
39264;SDS011;42646;51.910;7.724;2023-09-30T01:47:24;8.60;;;2.83;;
39264;SDS011;42646;51.910;7.724;2023-09-30T01:50:16;7.80;;;3.08;;
39264;SDS011;42646;51.910;7.724;2023-09-30T01:52:44;6.85;;;3.15;;
39264;SDS011;42646;51.910;7.724;2023-09-30T01:55:13;9.90;;;3.47;;
39264;SDS011;42646;51.910;7.724;2023-09-30T01:57:41;8.57;;;2.97;;
39264;SDS011;42646;51.910;7.724;2023-09-30T02:00:08;10.45;;;3.25;;
39264;SDS011;42646;51.910;7.724;2023-09-30T02:02:41;9.15;;;3.13;;
39264;SDS011;42646;51.910;7.724;2023-09-30T02:05:10;9.48;;;3.00;;
39264;SDS011;42646;51.910;7.724;2023-09-30T02:07:38;8.55;;;2.95;;
39264;SDS011;42646;51.910;7.724;2023-09-30T02:10:07;7.10;;;2.80;;
39264;SDS011;42646;51.910;7.724;2023-09-30T02:12:37;8.52;;;3.10;;
39264;SDS011;42646;51.910;7.724;2023-09-30T02:15:06;8.93;;;3.30;;
39264;SDS011;42646;51.910;7.724;2023-09-30T02:17:34;10.75;;;3.20;;
39264;SDS011;42646;51.910;7.724;2023-09-30T02:20:03;7.38;;;3.13;;
39264;SDS011;42646;51.910;7.724;2023-09-30T02:22:33;7.13;;;3.03;;
39264;SDS011;42646;51.910;7.724;2023-09-30T02:25:02;8.77;;;3.30;;
39264;SDS011;42646;51.910;7.724;2023-09-30T02:30:57;7.63;;;3.00;;
39264;SDS011;42646;51.910;7.724;2023-09-30T02:33:26;7.00;;;3.30;;
39264;SDS011;42646;51.910;7.724;2023-09-30T02:35:57;7.97;;;3.33;;
39264;SDS011;42646;51.910;7.724;2023-09-30T02:38:26;9.20;;;2.90;;
39264;SDS011;42646;51.910;7.724;2023-09-30T02:40:54;9.77;;;3.30;;
39264;SDS011;42646;51.910;7.724;2023-09-30T02:43:22;8.57;;;3.20;;
39264;SDS011;42646;51.910;7.724;2023-09-30T02:45:50;7.80;;;3.30;;
39264;SDS011;42646;51.910;7.724;2023-09-30T02:48:20;9.38;;;3.28;;
39264;SDS011;42646;51.910;7.724;2023-09-30T02:50:48;6.57;;;3.00;;
39264;SDS011;42646;51.910;7.724;2023-09-30T02:53:16;8.43;;;3.13;;
39264;SDS011;42646;51.910;7.724;2023-09-30T02:56:09;9.93;;;3.40;;
39264;SDS011;42646;51.910;7.724;2023-09-30T02:58:37;8.45;;;3.03;;
39264;SDS011;42646;51.910;7.724;2023-09-30T03:01:06;8.70;;;3.17;;
39264;SDS011;42646;51.910;7.724;2023-09-30T03:03:38;8.65;;;3.50;;
39264;SDS011;42646;51.910;7.724;2023-09-30T03:06:07;7.53;;;3.25;;
39264;SDS011;42646;51.910;7.724;2023-09-30T03:08:36;8.10;;;2.92;;
39264;SDS011;42646;51.910;7.724;2023-09-30T03:11:04;7.63;;;3.17;;
39264;SDS011;42646;51.910;7.724;2023-09-30T03:13:32;7.70;;;3.45;;
39264;SDS011;42646;51.910;7.724;2023-09-30T03:16:01;6.85;;;3.03;;
39264;SDS011;42646;51.910;7.724;2023-09-30T03:18:30;9.65;;;3.20;;
39264;SDS011;42646;51.910;7.724;2023-09-30T03:21:00;7.97;;;3.50;;
39264;SDS011;42646;51.910;7.724;2023-09-30T03:23:35;9.75;;;3.17;;
39264;SDS011;42646;51.910;7.724;2023-09-30T03:26:05;10.18;;;3.35;;
39264;SDS011;42646;51.910;7.724;2023-09-30T03:28:36;9.93;;;3.27;;
39264;SDS011;42646;51.910;7.724;2023-09-30T03:31:04;9.15;;;3.45;;
39264;SDS011;42646;51.910;7.724;2023-09-30T03:33:35;7.40;;;3.20;;
39264;SDS011;42646;51.910;7.724;2023-09-30T03:36:05;9.80;;;3.40;;
39264;SDS011;42646;51.910;7.724;2023-09-30T03:38:37;8.05;;;3.00;;
39264;SDS011;42646;51.910;7.724;2023-09-30T03:41:05;8.95;;;3.45;;
39264;SDS011;42646;51.910;7.724;2023-09-30T03:43:34;6.95;;;3.08;;
39264;SDS011;42646;51.910;7.724;2023-09-30T03:46:07;8.45;;;3.38;;
39264;SDS011;42646;51.910;7.724;2023-09-30T03:48:36;9.75;;;3.60;;
39264;SDS011;42646;51.910;7.724;2023-09-30T03:51:11;10.27;;;3.40;;
39264;SDS011;42646;51.910;7.724;2023-09-30T03:53:40;8.70;;;3.30;;
39264;SDS011;42646;51.910;7.724;2023-09-30T03:56:10;9.20;;;3.22;;
39264;SDS011;42646;51.910;7.724;2023-09-30T03:58:39;10.27;;;4.45;;
39264;SDS011;42646;51.910;7.724;2023-09-30T04:01:33;9.23;;;3.50;;
39264;SDS011;42646;51.910;7.724;2023-09-30T04:04:01;9.15;;;3.70;;
39264;SDS011;42646;51.910;7.724;2023-09-30T04:06:30;8.65;;;3.50;;
39264;SDS011;42646;51.910;7.724;2023-09-30T04:08:59;7.97;;;3.47;;
39264;SDS011;42646;51.910;7.724;2023-09-30T04:11:28;7.68;;;3.67;;
39264;SDS011;42646;51.910;7.724;2023-09-30T04:13:56;6.88;;;3.50;;
39264;SDS011;42646;51.910;7.724;2023-09-30T04:16:24;8.25;;;3.22;;
39264;SDS011;42646;51.910;7.724;2023-09-30T04:18:57;7.43;;;3.47;;
39264;SDS011;42646;51.910;7.724;2023-09-30T04:21:25;8.23;;;3.53;;
39264;SDS011;42646;51.910;7.724;2023-09-30T04:23:55;8.48;;;3.53;;
39264;SDS011;42646;51.910;7.724;2023-09-30T04:26:24;9.32;;;3.47;;
39264;SDS011;42646;51.910;7.724;2023-09-30T04:28:52;8.52;;;3.50;;
39264;SDS011;42646;51.910;7.724;2023-09-30T04:31:20;7.32;;;3.05;;
39264;SDS011;42646;51.910;7.724;2023-09-30T04:33:49;7.20;;;3.22;;
39264;SDS011;42646;51.910;7.724;2023-09-30T04:36:20;8.45;;;3.72;;
39264;SDS011;42646;51.910;7.724;2023-09-30T04:39:15;10.32;;;4.00;;
39264;SDS011;42646;51.910;7.724;2023-09-30T04:41:44;8.02;;;3.50;;
39264;SDS011;42646;51.910;7.724;2023-09-30T04:44:14;6.70;;;3.40;;
39264;SDS011;42646;51.910;7.724;2023-09-30T04:46:42;7.72;;;3.67;;
39264;SDS011;42646;51.910;7.724;2023-09-30T04:49:14;5.93;;;3.17;;
39264;SDS011;42646;51.910;7.724;2023-09-30T04:51:41;8.25;;;3.70;;
39264;SDS011;42646;51.910;7.724;2023-09-30T04:54:10;9.88;;;3.85;;
39264;SDS011;42646;51.910;7.724;2023-09-30T04:56:40;7.45;;;3.60;;
39264;SDS011;42646;51.910;7.724;2023-09-30T04:59:08;7.72;;;3.75;;
39264;SDS011;42646;51.910;7.724;2023-09-30T05:01:36;9.98;;;3.63;;
39264;SDS011;42646;51.910;7.724;2023-09-30T05:04:08;9.10;;;3.75;;
39264;SDS011;42646;51.910;7.724;2023-09-30T05:09:06;8.27;;;3.80;;
39264;SDS011;42646;51.910;7.724;2023-09-30T05:11:34;7.72;;;4.10;;
39264;SDS011;42646;51.910;7.724;2023-09-30T05:14:03;7.75;;;4.00;;
39264;SDS011;42646;51.910;7.724;2023-09-30T05:16:32;8.18;;;4.07;;
39264;SDS011;42646;51.910;7.724;2023-09-30T05:19:26;9.10;;;4.00;;
39264;SDS011;42646;51.910;7.724;2023-09-30T05:21:56;6.28;;;3.65;;
39264;SDS011;42646;51.910;7.724;2023-09-30T05:24:24;8.10;;;4.13;;
39264;SDS011;42646;51.910;7.724;2023-09-30T05:26:55;9.25;;;4.60;;
39264;SDS011;42646;51.910;7.724;2023-09-30T05:29:24;7.47;;;4.10;;
39264;SDS011;42646;51.910;7.724;2023-09-30T05:31:53;10.05;;;4.10;;
39264;SDS011;42646;51.910;7.724;2023-09-30T05:34:21;8.88;;;4.30;;
39264;SDS011;42646;51.910;7.724;2023-09-30T05:36:49;9.32;;;4.57;;
39264;SDS011;42646;51.910;7.724;2023-09-30T05:39:18;10.50;;;4.22;;
39264;SDS011;42646;51.910;7.724;2023-09-30T05:41:47;9.75;;;4.47;;
39264;SDS011;42646;51.910;7.724;2023-09-30T05:44:15;14.43;;;5.68;;
39264;SDS011;42646;51.910;7.724;2023-09-30T05:46:44;11.20;;;4.97;;
39264;SDS011;42646;51.910;7.724;2023-09-30T05:49:12;9.40;;;4.82;;
39264;SDS011;42646;51.910;7.724;2023-09-30T05:52:04;11.07;;;4.85;;
39264;SDS011;42646;51.910;7.724;2023-09-30T05:54:32;9.57;;;4.90;;
39264;SDS011;42646;51.910;7.724;2023-09-30T05:57:00;12.77;;;5.47;;
39264;SDS011;42646;51.910;7.724;2023-09-30T05:59:30;11.07;;;4.90;;
39264;SDS011;42646;51.910;7.724;2023-09-30T06:02:00;11.65;;;5.60;;
39264;SDS011;42646;51.910;7.724;2023-09-30T06:04:29;10.98;;;5.32;;
39264;SDS011;42646;51.910;7.724;2023-09-30T06:06:57;11.48;;;5.40;;
39264;SDS011;42646;51.910;7.724;2023-09-30T06:09:25;10.55;;;5.35;;
39264;SDS011;42646;51.910;7.724;2023-09-30T06:11:57;11.35;;;5.30;;
39264;SDS011;42646;51.910;7.724;2023-09-30T06:14:27;13.38;;;5.68;;
39264;SDS011;42646;51.910;7.724;2023-09-30T06:16:57;8.95;;;4.88;;
39264;SDS011;42646;51.910;7.724;2023-09-30T06:19:26;10.57;;;5.20;;
39264;SDS011;42646;51.910;7.724;2023-09-30T06:21:56;8.70;;;4.95;;
39264;SDS011;42646;51.910;7.724;2023-09-30T06:24:24;11.35;;;5.90;;
39264;SDS011;42646;51.910;7.724;2023-09-30T06:26:53;8.75;;;4.93;;
39264;SDS011;42646;51.910;7.724;2023-09-30T06:29:21;10.15;;;5.30;;
39264;SDS011;42646;51.910;7.724;2023-09-30T06:31:49;12.68;;;5.78;;
39264;SDS011;42646;51.910;7.724;2023-09-30T06:34:17;10.02;;;5.35;;
39264;SDS011;42646;51.910;7.724;2023-09-30T06:36:47;9.98;;;5.55;;
39264;SDS011;42646;51.910;7.724;2023-09-30T06:39:15;9.43;;;5.53;;
39264;SDS011;42646;51.910;7.724;2023-09-30T06:41:43;13.55;;;6.70;;
39264;SDS011;42646;51.910;7.724;2023-09-30T06:44:12;10.93;;;6.05;;
39264;SDS011;42646;51.910;7.724;2023-09-30T06:46:40;12.65;;;6.30;;
39264;SDS011;42646;51.910;7.724;2023-09-30T06:49:09;15.45;;;6.45;;
39264;SDS011;42646;51.910;7.724;2023-09-30T06:51:37;12.90;;;6.28;;
39264;SDS011;42646;51.910;7.724;2023-09-30T06:54:07;13.10;;;6.03;;
39264;SDS011;42646;51.910;7.724;2023-09-30T06:56:41;12.98;;;6.55;;
39264;SDS011;42646;51.910;7.724;2023-09-30T07:01:37;14.63;;;6.13;;
39264;SDS011;42646;51.910;7.724;2023-09-30T07:04:05;11.38;;;6.13;;
39264;SDS011;42646;51.910;7.724;2023-09-30T07:06:33;11.23;;;6.22;;
39264;SDS011;42646;51.910;7.724;2023-09-30T07:09:02;12.48;;;6.60;;
39264;SDS011;42646;51.910;7.724;2023-09-30T07:11:32;13.05;;;6.43;;
39264;SDS011;42646;51.910;7.724;2023-09-30T07:14:00;12.55;;;6.07;;
39264;SDS011;42646;51.910;7.724;2023-09-30T07:16:28;12.02;;;6.10;;
39264;SDS011;42646;51.910;7.724;2023-09-30T07:21:49;12.93;;;6.47;;
39264;SDS011;42646;51.910;7.724;2023-09-30T07:24:30;13.37;;;5.97;;
39264;SDS011;42646;51.910;7.724;2023-09-30T07:26:59;13.27;;;6.45;;
39264;SDS011;42646;51.910;7.724;2023-09-30T07:29:28;10.82;;;5.70;;
39264;SDS011;42646;51.910;7.724;2023-09-30T07:31:55;12.90;;;6.28;;
39264;SDS011;42646;51.910;7.724;2023-09-30T07:34:23;12.55;;;6.13;;
39264;SDS011;42646;51.910;7.724;2023-09-30T07:36:51;10.02;;;5.97;;
39264;SDS011;42646;51.910;7.724;2023-09-30T07:39:19;12.23;;;5.88;;
39264;SDS011;42646;51.910;7.724;2023-09-30T07:41:47;12.73;;;6.88;;
39264;SDS011;42646;51.910;7.724;2023-09-30T07:44:16;11.75;;;6.43;;
39264;SDS011;42646;51.910;7.724;2023-09-30T07:46:44;10.60;;;6.18;;
39264;SDS011;42646;51.910;7.724;2023-09-30T07:49:11;12.30;;;6.07;;
39264;SDS011;42646;51.910;7.724;2023-09-30T07:51:39;12.00;;;5.90;;
39264;SDS011;42646;51.910;7.724;2023-09-30T07:54:08;13.00;;;6.10;;
39264;SDS011;42646;51.910;7.724;2023-09-30T07:56:56;10.43;;;5.70;;
39264;SDS011;42646;51.910;7.724;2023-09-30T07:59:25;12.88;;;6.35;;
39264;SDS011;42646;51.910;7.724;2023-09-30T08:01:53;12.35;;;5.88;;
39264;SDS011;42646;51.910;7.724;2023-09-30T08:04:23;10.25;;;5.10;;
39264;SDS011;42646;51.910;7.724;2023-09-30T08:06:51;10.13;;;5.10;;
39264;SDS011;42646;51.910;7.724;2023-09-30T08:09:19;10.82;;;5.22;;
39264;SDS011;42646;51.910;7.724;2023-09-30T08:11:49;8.80;;;4.65;;
39264;SDS011;42646;51.910;7.724;2023-09-30T08:14:17;8.75;;;5.30;;
39264;SDS011;42646;51.910;7.724;2023-09-30T08:16:46;10.60;;;5.50;;
39264;SDS011;42646;51.910;7.724;2023-09-30T08:19:16;9.98;;;5.55;;
39264;SDS011;42646;51.910;7.724;2023-09-30T08:21:46;12.93;;;5.85;;
39264;SDS011;42646;51.910;7.724;2023-09-30T08:24:15;11.35;;;5.50;;
39264;SDS011;42646;51.910;7.724;2023-09-30T08:26:44;9.90;;;5.22;;
39264;SDS011;42646;51.910;7.724;2023-09-30T08:29:12;9.00;;;5.22;;
39264;SDS011;42646;51.910;7.724;2023-09-30T08:31:40;10.13;;;5.13;;
39264;SDS011;42646;51.910;7.724;2023-09-30T08:34:10;11.40;;;5.05;;
39264;SDS011;42646;51.910;7.724;2023-09-30T08:36:39;12.80;;;6.68;;
39264;SDS011;42646;51.910;7.724;2023-09-30T08:54:43;11.95;;;5.22;;
39264;SDS011;42646;51.910;7.724;2023-09-30T08:57:11;10.25;;;5.00;;
39264;SDS011;42646;51.910;7.724;2023-09-30T08:59:40;7.85;;;4.15;;
39264;SDS011;42646;51.910;7.724;2023-09-30T09:02:10;9.80;;;5.18;;
39264;SDS011;42646;51.910;7.724;2023-09-30T09:04:38;10.82;;;5.03;;
39264;SDS011;42646;51.910;7.724;2023-09-30T09:07:06;10.07;;;4.78;;
39264;SDS011;42646;51.910;7.724;2023-09-30T09:09:34;10.93;;;4.97;;
39264;SDS011;42646;51.910;7.724;2023-09-30T09:12:04;12.13;;;5.00;;
39264;SDS011;42646;51.910;7.724;2023-09-30T09:14:39;10.35;;;4.57;;
39264;SDS011;42646;51.910;7.724;2023-09-30T09:17:08;9.95;;;4.75;;
39264;SDS011;42646;51.910;7.724;2023-09-30T09:19:41;9.82;;;4.22;;
39264;SDS011;42646;51.910;7.724;2023-09-30T09:22:09;9.68;;;4.40;;
39264;SDS011;42646;51.910;7.724;2023-09-30T09:24:37;8.60;;;4.10;;
39264;SDS011;42646;51.910;7.724;2023-09-30T09:27:09;7.65;;;3.63;;
39264;SDS011;42646;51.910;7.724;2023-09-30T09:29:39;11.48;;;4.68;;
39264;SDS011;42646;51.910;7.724;2023-09-30T09:32:09;7.80;;;3.80;;
39264;SDS011;42646;51.910;7.724;2023-09-30T09:34:39;7.53;;;4.05;;
39264;SDS011;42646;51.910;7.724;2023-09-30T09:37:13;8.63;;;3.85;;
39264;SDS011;42646;51.910;7.724;2023-09-30T09:39:49;9.77;;;4.55;;
39264;SDS011;42646;51.910;7.724;2023-09-30T09:42:27;10.77;;;4.32;;
39264;SDS011;42646;51.910;7.724;2023-09-30T09:44:56;12.07;;;5.28;;
39264;SDS011;42646;51.910;7.724;2023-09-30T09:47:25;10.98;;;4.68;;
39264;SDS011;42646;51.910;7.724;2023-09-30T09:49:58;8.32;;;3.92;;
39264;SDS011;42646;51.910;7.724;2023-09-30T09:52:29;8.15;;;3.58;;
39264;SDS011;42646;51.910;7.724;2023-09-30T09:54:58;9.35;;;4.43;;
39264;SDS011;42646;51.910;7.724;2023-09-30T09:57:30;8.25;;;3.80;;
39264;SDS011;42646;51.910;7.724;2023-09-30T09:59:58;8.85;;;3.72;;
39264;SDS011;42646;51.910;7.724;2023-09-30T10:02:31;8.05;;;3.88;;
39264;SDS011;42646;51.910;7.724;2023-09-30T10:05:00;7.35;;;3.35;;
39264;SDS011;42646;51.910;7.724;2023-09-30T10:07:33;8.30;;;3.60;;
39264;SDS011;42646;51.910;7.724;2023-09-30T10:10:05;7.03;;;3.35;;
39264;SDS011;42646;51.910;7.724;2023-09-30T10:12:41;9.65;;;3.90;;
39264;SDS011;42646;51.910;7.724;2023-09-30T10:18:04;9.35;;;3.78;;
39264;SDS011;42646;51.910;7.724;2023-09-30T10:20:39;9.23;;;3.90;;
39264;SDS011;42646;51.910;7.724;2023-09-30T10:23:17;8.25;;;3.75;;
39264;SDS011;42646;51.910;7.724;2023-09-30T10:25:46;6.78;;;3.58;;
39264;SDS011;42646;51.910;7.724;2023-09-30T10:28:36;8.35;;;3.50;;
39264;SDS011;42646;51.910;7.724;2023-09-30T10:31:10;10.43;;;3.85;;
39264;SDS011;42646;51.910;7.724;2023-09-30T10:36:44;7.55;;;3.40;;
39264;SDS011;42646;51.910;7.724;2023-09-30T10:39:13;8.32;;;3.92;;
39264;SDS011;42646;51.910;7.724;2023-09-30T10:41:50;8.15;;;3.28;;
39264;SDS011;42646;51.910;7.724;2023-09-30T10:44:35;6.68;;;3.45;;
39264;SDS011;42646;51.910;7.724;2023-09-30T10:50:03;8.98;;;3.30;;
39264;SDS011;42646;51.910;7.724;2023-09-30T10:52:31;8.25;;;3.22;;
39264;SDS011;42646;51.910;7.724;2023-09-30T10:55:02;7.45;;;3.28;;
39264;SDS011;42646;51.910;7.724;2023-09-30T10:57:34;6.73;;;3.30;;
39264;SDS011;42646;51.910;7.724;2023-09-30T11:00:08;6.93;;;3.25;;
39264;SDS011;42646;51.910;7.724;2023-09-30T11:02:48;8.63;;;3.22;;
39264;SDS011;42646;51.910;7.724;2023-09-30T11:05:17;8.32;;;3.17;;
39264;SDS011;42646;51.910;7.724;2023-09-30T11:08:06;6.47;;;3.30;;
39264;SDS011;42646;51.910;7.724;2023-09-30T11:10:36;8.30;;;2.75;;
39264;SDS011;42646;51.910;7.724;2023-09-30T11:13:04;8.40;;;3.40;;
39264;SDS011;42646;51.910;7.724;2023-09-30T11:15:34;8.10;;;3.40;;
39264;SDS011;42646;51.910;7.724;2023-09-30T11:18:12;7.05;;;3.08;;
39264;SDS011;42646;51.910;7.724;2023-09-30T11:20:41;6.65;;;2.67;;
39264;SDS011;42646;51.910;7.724;2023-09-30T11:23:15;7.28;;;2.63;;
39264;SDS011;42646;51.910;7.724;2023-09-30T11:25:43;6.28;;;2.38;;
39264;SDS011;42646;51.910;7.724;2023-09-30T11:28:13;6.30;;;3.00;;
39264;SDS011;42646;51.910;7.724;2023-09-30T11:30:56;6.55;;;2.70;;
39264;SDS011;42646;51.910;7.724;2023-09-30T11:33:24;7.47;;;2.70;;
39264;SDS011;42646;51.910;7.724;2023-09-30T11:35:56;5.80;;;2.85;;
39264;SDS011;42646;51.910;7.724;2023-09-30T11:41:20;5.97;;;2.60;;
39264;SDS011;42646;51.910;7.724;2023-09-30T11:43:58;7.60;;;2.60;;
39264;SDS011;42646;51.910;7.724;2023-09-30T11:46:48;6.70;;;2.80;;
39264;SDS011;42646;51.910;7.724;2023-09-30T11:49:25;6.53;;;2.42;;
39264;SDS011;42646;51.910;7.724;2023-09-30T11:51:54;8.10;;;2.22;;
39264;SDS011;42646;51.910;7.724;2023-09-30T11:54:25;9.05;;;3.47;;
39264;SDS011;42646;51.910;7.724;2023-09-30T11:56:56;7.57;;;2.80;;
39264;SDS011;42646;51.910;7.724;2023-09-30T11:59:25;5.78;;;2.50;;
39264;SDS011;42646;51.910;7.724;2023-09-30T12:01:54;7.40;;;2.97;;
39264;SDS011;42646;51.910;7.724;2023-09-30T12:04:41;5.47;;;2.45;;
39264;SDS011;42646;51.910;7.724;2023-09-30T12:07:10;5.40;;;2.65;;
39264;SDS011;42646;51.910;7.724;2023-09-30T12:09:38;7.47;;;2.63;;
39264;SDS011;42646;51.910;7.724;2023-09-30T12:12:08;7.55;;;2.80;;
39264;SDS011;42646;51.910;7.724;2023-09-30T12:14:38;6.22;;;2.75;;
39264;SDS011;42646;51.910;7.724;2023-09-30T12:17:08;6.55;;;2.70;;
39264;SDS011;42646;51.910;7.724;2023-09-30T12:19:39;8.30;;;2.80;;
39264;SDS011;42646;51.910;7.724;2023-09-30T12:22:12;5.38;;;2.58;;
39264;SDS011;42646;51.910;7.724;2023-09-30T12:24:40;5.50;;;2.70;;
39264;SDS011;42646;51.910;7.724;2023-09-30T12:27:09;6.93;;;2.95;;
39264;SDS011;42646;51.910;7.724;2023-09-30T12:29:37;5.57;;;2.72;;
39264;SDS011;42646;51.910;7.724;2023-09-30T12:32:09;6.53;;;2.92;;
39264;SDS011;42646;51.910;7.724;2023-09-30T12:34:37;8.23;;;3.13;;
39264;SDS011;42646;51.910;7.724;2023-09-30T12:37:06;5.25;;;2.50;;
39264;SDS011;42646;51.910;7.724;2023-09-30T12:39:34;6.63;;;2.58;;
39264;SDS011;42646;51.910;7.724;2023-09-30T12:42:03;7.85;;;2.80;;
39264;SDS011;42646;51.910;7.724;2023-09-30T12:44:35;6.75;;;2.97;;
39264;SDS011;42646;51.910;7.724;2023-09-30T12:47:03;5.45;;;2.58;;
39264;SDS011;42646;51.910;7.724;2023-09-30T12:49:34;4.72;;;2.38;;
39264;SDS011;42646;51.910;7.724;2023-09-30T12:52:01;5.68;;;2.50;;
39264;SDS011;42646;51.910;7.724;2023-09-30T12:54:33;7.43;;;2.60;;
39264;SDS011;42646;51.910;7.724;2023-09-30T12:57:01;6.68;;;3.00;;
39264;SDS011;42646;51.910;7.724;2023-09-30T12:59:30;6.15;;;2.67;;
39264;SDS011;42646;51.910;7.724;2023-09-30T13:01:57;7.03;;;2.80;;
39264;SDS011;42646;51.910;7.724;2023-09-30T13:04:25;4.63;;;2.40;;
39264;SDS011;42646;51.910;7.724;2023-09-30T13:06:57;6.35;;;2.65;;
39264;SDS011;42646;51.910;7.724;2023-09-30T13:09:24;5.77;;;2.73;;
39264;SDS011;42646;51.910;7.724;2023-09-30T13:11:52;7.00;;;2.80;;
39264;SDS011;42646;51.910;7.724;2023-09-30T13:14:21;6.47;;;2.88;;
39264;SDS011;42646;51.910;7.724;2023-09-30T13:16:50;7.55;;;2.95;;
39264;SDS011;42646;51.910;7.724;2023-09-30T13:19:19;6.88;;;3.00;;
39264;SDS011;42646;51.910;7.724;2023-09-30T13:21:51;6.18;;;2.78;;
39264;SDS011;42646;51.910;7.724;2023-09-30T13:24:23;8.10;;;3.17;;
39264;SDS011;42646;51.910;7.724;2023-09-30T13:26:50;6.65;;;2.90;;
39264;SDS011;42646;51.910;7.724;2023-09-30T13:29:19;7.80;;;3.40;;
39264;SDS011;42646;51.910;7.724;2023-09-30T13:31:47;8.88;;;3.45;;
39264;SDS011;42646;51.910;7.724;2023-09-30T13:34:15;6.38;;;2.97;;
39264;SDS011;42646;51.910;7.724;2023-09-30T13:36:43;5.47;;;2.80;;
39264;SDS011;42646;51.910;7.724;2023-09-30T13:39:12;6.60;;;3.10;;
39264;SDS011;42646;51.910;7.724;2023-09-30T13:41:41;7.53;;;2.97;;
39264;SDS011;42646;51.910;7.724;2023-09-30T13:44:09;6.32;;;2.72;;
39264;SDS011;42646;51.910;7.724;2023-09-30T13:46:38;8.23;;;2.97;;
39264;SDS011;42646;51.910;7.724;2023-09-30T13:49:07;6.85;;;2.95;;
39264;SDS011;42646;51.910;7.724;2023-09-30T13:51:35;6.80;;;2.50;;
39264;SDS011;42646;51.910;7.724;2023-09-30T13:54:06;6.40;;;2.55;;
39264;SDS011;42646;51.910;7.724;2023-09-30T13:56:36;6.32;;;2.85;;
39264;SDS011;42646;51.910;7.724;2023-09-30T13:59:08;6.15;;;2.92;;
39264;SDS011;42646;51.910;7.724;2023-09-30T14:01:37;6.50;;;2.92;;
39264;SDS011;42646;51.910;7.724;2023-09-30T14:04:08;6.20;;;2.55;;
39264;SDS011;42646;51.910;7.724;2023-09-30T14:06:36;6.65;;;3.00;;
39264;SDS011;42646;51.910;7.724;2023-09-30T14:09:04;6.72;;;2.75;;
39264;SDS011;42646;51.910;7.724;2023-09-30T14:12:12;5.38;;;2.50;;
39264;SDS011;42646;51.910;7.724;2023-09-30T14:14:41;6.20;;;2.58;;
39264;SDS011;42646;51.910;7.724;2023-09-30T14:17:09;7.05;;;2.60;;
39264;SDS011;42646;51.910;7.724;2023-09-30T14:19:38;5.57;;;2.50;;
39264;SDS011;42646;51.910;7.724;2023-09-30T14:22:07;4.07;;;2.30;;
39264;SDS011;42646;51.910;7.724;2023-09-30T14:24:35;7.10;;;2.75;;
39264;SDS011;42646;51.910;7.724;2023-09-30T14:27:03;7.65;;;2.90;;
39264;SDS011;42646;51.910;7.724;2023-09-30T14:29:32;5.22;;;2.72;;
39264;SDS011;42646;51.910;7.724;2023-09-30T14:32:04;5.30;;;2.45;;
39264;SDS011;42646;51.910;7.724;2023-09-30T14:34:33;4.55;;;2.50;;
39264;SDS011;42646;51.910;7.724;2023-09-30T14:37:02;5.47;;;2.72;;
39264;SDS011;42646;51.910;7.724;2023-09-30T14:39:29;6.63;;;2.92;;
39264;SDS011;42646;51.910;7.724;2023-09-30T14:41:57;7.45;;;2.97;;
39264;SDS011;42646;51.910;7.724;2023-09-30T14:44:26;6.13;;;2.60;;
39264;SDS011;42646;51.910;7.724;2023-09-30T14:46:54;5.97;;;2.58;;
39264;SDS011;42646;51.910;7.724;2023-09-30T14:49:25;7.05;;;2.60;;
39264;SDS011;42646;51.910;7.724;2023-09-30T14:51:53;7.15;;;3.03;;
39264;SDS011;42646;51.910;7.724;2023-09-30T14:54:20;6.28;;;2.97;;
39264;SDS011;42646;51.910;7.724;2023-09-30T14:56:50;6.10;;;2.67;;
39264;SDS011;42646;51.910;7.724;2023-09-30T14:59:18;6.60;;;3.05;;
39264;SDS011;42646;51.910;7.724;2023-09-30T15:01:46;7.03;;;3.05;;
39264;SDS011;42646;51.910;7.724;2023-09-30T15:04:15;7.63;;;2.97;;
39264;SDS011;42646;51.910;7.724;2023-09-30T15:06:49;5.40;;;2.63;;
39264;SDS011;42646;51.910;7.724;2023-09-30T15:09:17;6.63;;;2.55;;
39264;SDS011;42646;51.910;7.724;2023-09-30T15:11:44;6.32;;;2.80;;
39264;SDS011;42646;51.910;7.724;2023-09-30T15:14:12;6.32;;;2.90;;
39264;SDS011;42646;51.910;7.724;2023-09-30T15:16:42;5.90;;;3.08;;
39264;SDS011;42646;51.910;7.724;2023-09-30T15:19:10;5.35;;;2.50;;
39264;SDS011;42646;51.910;7.724;2023-09-30T15:21:39;5.88;;;2.80;;
39264;SDS011;42646;51.910;7.724;2023-09-30T15:24:09;5.55;;;2.70;;
39264;SDS011;42646;51.910;7.724;2023-09-30T15:26:37;5.03;;;2.58;;
39264;SDS011;42646;51.910;7.724;2023-09-30T15:29:04;5.40;;;2.63;;
39264;SDS011;42646;51.910;7.724;2023-09-30T15:31:32;5.85;;;2.85;;
39264;SDS011;42646;51.910;7.724;2023-09-30T15:34:00;4.97;;;2.70;;
39264;SDS011;42646;51.910;7.724;2023-09-30T15:36:29;6.82;;;2.65;;
39264;SDS011;42646;51.910;7.724;2023-09-30T15:38:57;5.38;;;2.97;;
39264;SDS011;42646;51.910;7.724;2023-09-30T15:41:26;5.40;;;2.60;;
39264;SDS011;42646;51.910;7.724;2023-09-30T15:43:54;6.22;;;2.63;;